createdAt,value
2017-10-29T00:00:57.473Z,987.83
2017-10-29T00:01:57.423Z,987.80
2017-10-29T00:02:57.364Z,987.94
2017-10-29T00:03:57.309Z,987.92
2017-10-29T00:04:57.233Z,987.78
2017-10-29T00:05:57.174Z,987.65
2017-10-29T00:06:57.145Z,987.65
2017-10-29T00:07:57.057Z,987.64
2017-10-29T00:08:57.000Z,987.51
2017-10-29T00:09:56.936Z,987.43
2017-10-29T00:10:56.879Z,987.31
2017-10-29T00:11:56.820Z,987.33
2017-10-29T00:12:56.769Z,987.27
2017-10-29T00:13:56.707Z,987.28
2017-10-29T00:14:56.651Z,987.12
2017-10-29T00:15:56.610Z,987.13
2017-10-29T00:16:56.535Z,987.14
2017-10-29T00:17:56.474Z,987.10
2017-10-29T00:18:56.424Z,986.95
2017-10-29T00:19:56.369Z,986.99
2017-10-29T00:20:56.314Z,986.97
2017-10-29T00:21:56.259Z,987.03
2017-10-29T00:22:56.183Z,986.87
2017-10-29T00:23:56.123Z,986.85
2017-10-29T00:24:56.068Z,986.88
2017-10-29T00:25:56.010Z,986.85
2017-10-29T00:26:55.949Z,986.77
2017-10-29T00:27:55.893Z,986.75
2017-10-29T00:28:55.826Z,986.75
2017-10-29T00:29:55.771Z,986.80
2017-10-29T00:30:55.715Z,986.61
2017-10-29T00:31:55.657Z,986.66
2017-10-29T00:32:55.603Z,986.59
2017-10-29T00:33:55.544Z,986.54
2017-10-29T00:34:55.486Z,986.42
2017-10-29T00:35:55.432Z,986.40
2017-10-29T00:36:55.375Z,986.38
2017-10-29T00:37:55.311Z,986.36
2017-10-29T00:38:55.265Z,986.33
2017-10-29T00:39:55.211Z,986.34
2017-10-29T00:40:55.157Z,986.20
2017-10-29T00:41:55.076Z,986.14
2017-10-29T00:42:55.020Z,986.05
2017-10-29T00:43:54.963Z,986.08
2017-10-29T00:44:54.907Z,985.98
2017-10-29T00:45:54.846Z,986.05
2017-10-29T00:46:54.784Z,985.95
2017-10-29T00:47:54.731Z,986.01
2017-10-29T00:48:54.677Z,985.91
2017-10-29T00:49:54.612Z,985.81
2017-10-29T00:50:54.555Z,985.81
2017-10-29T00:51:54.497Z,986.00
2017-10-29T00:52:54.440Z,985.77
2017-10-29T00:53:54.382Z,985.72
2017-10-29T00:54:54.323Z,985.68
2017-10-29T00:55:54.267Z,985.59
2017-10-29T00:56:54.216Z,985.61
2017-10-29T00:57:54.162Z,985.56
2017-10-29T00:58:54.091Z,985.56
2017-10-29T00:59:54.052Z,985.53
2017-10-29T01:00:53.975Z,985.47
2017-10-29T01:01:53.916Z,985.43
2017-10-29T01:02:53.860Z,985.36
2017-10-29T01:03:53.802Z,985.16
2017-10-29T01:04:53.744Z,985.30
2017-10-29T01:05:53.685Z,985.19
2017-10-29T01:06:53.624Z,985.07
2017-10-29T01:07:53.565Z,985.07
2017-10-29T01:08:53.509Z,984.97
2017-10-29T01:09:53.453Z,985.00
2017-10-29T01:10:53.396Z,985.00
2017-10-29T01:11:53.344Z,984.99
2017-10-29T01:12:53.280Z,984.88
2017-10-29T01:13:53.224Z,984.82
2017-10-29T01:14:53.169Z,984.71
2017-10-29T01:15:53.114Z,984.76
2017-10-29T01:16:53.058Z,984.64
2017-10-29T01:17:53.004Z,984.63
2017-10-29T01:18:52.948Z,984.69
2017-10-29T01:19:52.896Z,984.57
2017-10-29T01:20:52.817Z,984.58
2017-10-29T01:21:52.761Z,984.45
2017-10-29T01:22:52.705Z,984.48
2017-10-29T01:23:52.643Z,984.52
2017-10-29T01:24:52.585Z,984.51
2017-10-29T01:25:52.528Z,984.29
2017-10-29T01:26:52.464Z,984.38
2017-10-29T01:27:52.412Z,984.32
2017-10-29T01:28:52.350Z,984.32
2017-10-29T01:29:52.295Z,984.24
2017-10-29T01:30:52.237Z,984.11
2017-10-29T01:31:52.180Z,984.04
2017-10-29T01:32:52.122Z,983.92
2017-10-29T01:33:52.070Z,984.07
2017-10-29T01:34:52.017Z,983.93
2017-10-29T01:35:51.954Z,983.91
2017-10-29T01:36:51.900Z,983.87
2017-10-29T01:37:51.846Z,983.90
2017-10-29T01:38:51.791Z,983.83
2017-10-29T01:39:51.735Z,983.71
2017-10-29T01:40:51.663Z,983.68
2017-10-29T01:41:51.602Z,983.79
2017-10-29T01:42:51.544Z,983.74
2017-10-29T01:43:51.484Z,983.62
2017-10-29T01:44:51.434Z,983.72
2017-10-29T01:45:51.371Z,983.63
2017-10-29T01:46:51.306Z,983.54
2017-10-29T01:47:51.254Z,983.54
2017-10-29T01:48:51.215Z,983.47
2017-10-29T01:49:51.136Z,983.62
2017-10-29T01:50:51.078Z,983.43
2017-10-29T01:51:51.022Z,983.43
2017-10-29T01:52:50.972Z,983.34
2017-10-29T01:53:50.910Z,983.35
2017-10-29T01:54:50.852Z,983.16
2017-10-29T01:55:50.797Z,983.14
2017-10-29T01:56:50.741Z,983.15
2017-10-29T01:57:50.690Z,982.94
2017-10-29T01:58:50.632Z,983.14
2017-10-29T01:59:50.577Z,983.08
2017-10-29T02:00:50.522Z,983.02
2017-10-29T02:01:50.470Z,982.88
2017-10-29T02:02:50.385Z,982.88
2017-10-29T02:03:50.328Z,982.80
2017-10-29T02:04:50.275Z,982.79
2017-10-29T02:05:50.213Z,982.66
2017-10-29T02:06:50.156Z,982.70
2017-10-29T02:07:50.094Z,982.53
2017-10-29T02:08:50.040Z,982.61
2017-10-29T02:09:49.976Z,982.70
2017-10-29T02:10:49.922Z,982.72
2017-10-29T02:11:49.865Z,982.61
2017-10-29T02:12:49.816Z,982.74
2017-10-29T02:13:49.751Z,982.67
2017-10-29T02:14:49.692Z,982.62
2017-10-29T02:15:49.638Z,982.81
2017-10-29T02:16:49.584Z,982.57
2017-10-29T02:17:49.528Z,982.39
2017-10-29T02:18:49.474Z,982.52
2017-10-29T02:19:49.418Z,982.45
2017-10-29T02:20:49.364Z,982.52
2017-10-29T02:21:49.286Z,982.42
2017-10-29T02:22:49.230Z,982.46
2017-10-29T02:23:49.172Z,982.41
2017-10-29T02:24:49.115Z,982.32
2017-10-29T02:25:49.077Z,982.34
2017-10-29T02:26:49.000Z,982.26
2017-10-29T02:27:48.939Z,981.97
2017-10-29T02:28:48.876Z,982.19
2017-10-29T02:29:48.819Z,982.11
2017-10-29T02:30:48.762Z,982.19
2017-10-29T02:31:48.705Z,981.99
2017-10-29T02:32:48.649Z,982.01
2017-10-29T02:33:48.591Z,981.87
2017-10-29T02:34:48.536Z,981.82
2017-10-29T02:35:48.492Z,982.01
2017-10-29T02:36:48.424Z,981.97
2017-10-29T02:37:48.369Z,981.69
2017-10-29T02:38:48.314Z,981.67
2017-10-29T02:39:48.260Z,981.82
2017-10-29T02:40:48.190Z,981.65
2017-10-29T02:41:48.126Z,981.49
2017-10-29T02:42:48.069Z,981.60
2017-10-29T02:43:48.010Z,981.52
2017-10-29T02:44:47.952Z,981.31
2017-10-29T02:45:47.890Z,981.35
2017-10-29T02:46:47.828Z,981.23
2017-10-29T02:47:47.773Z,981.25
2017-10-29T02:48:47.719Z,981.11
2017-10-29T02:49:47.659Z,981.20
2017-10-29T02:50:47.602Z,980.98
2017-10-29T02:51:47.551Z,981.24
2017-10-29T02:52:47.488Z,981.33
2017-10-29T02:53:47.437Z,981.21
2017-10-29T02:54:47.376Z,981.16
2017-10-29T02:55:47.320Z,981.41
2017-10-29T02:56:47.266Z,981.51
2017-10-29T02:57:47.210Z,981.08
2017-10-29T02:58:47.157Z,981.17
2017-10-29T02:59:47.081Z,981.14
2017-10-29T03:00:47.024Z,981.16
2017-10-29T03:01:46.968Z,981.10
2017-10-29T03:02:46.905Z,981.13
2017-10-29T03:03:46.848Z,981.10
2017-10-29T03:04:46.790Z,981.01
2017-10-29T03:05:46.729Z,981.10
2017-10-29T03:06:46.672Z,981.05
2017-10-29T03:07:46.610Z,981.08
2017-10-29T03:08:46.553Z,981.12
2017-10-29T03:09:46.500Z,981.20
2017-10-29T03:10:46.450Z,981.09
2017-10-29T03:11:46.383Z,981.03
2017-10-29T03:12:46.337Z,980.99
2017-10-29T03:13:46.273Z,980.90
2017-10-29T03:14:46.222Z,980.83
2017-10-29T03:15:46.148Z,980.77
2017-10-29T03:16:46.113Z,980.76
2017-10-29T03:17:46.029Z,980.76
2017-10-29T03:18:45.975Z,980.75
2017-10-29T03:19:45.916Z,980.74
2017-10-29T03:20:45.867Z,980.64
2017-10-29T03:21:45.800Z,980.73
2017-10-29T03:22:45.741Z,980.76
2017-10-29T03:23:45.679Z,980.81
2017-10-29T03:24:45.619Z,980.63
2017-10-29T03:25:45.568Z,980.60
2017-10-29T03:26:45.506Z,980.58
2017-10-29T03:27:45.448Z,980.49
2017-10-29T03:28:45.393Z,980.47
2017-10-29T03:29:45.334Z,980.61
2017-10-29T03:30:45.275Z,980.38
2017-10-29T03:31:45.222Z,980.59
2017-10-29T03:32:45.168Z,980.56
2017-10-29T03:33:45.112Z,980.41
2017-10-29T03:34:45.058Z,980.44
2017-10-29T03:35:44.984Z,980.58
2017-10-29T03:36:44.928Z,980.62
2017-10-29T03:37:44.878Z,980.69
2017-10-29T03:38:44.813Z,980.73
2017-10-29T03:39:44.752Z,980.68
2017-10-29T03:40:44.705Z,981.09
2017-10-29T03:41:44.633Z,981.34
2017-10-29T03:42:44.570Z,981.69
2017-10-29T03:43:44.517Z,981.19
2017-10-29T03:44:44.460Z,981.47
2017-10-29T03:45:44.400Z,981.63
2017-10-29T03:46:44.342Z,981.40
2017-10-29T03:47:44.285Z,981.46
2017-10-29T03:48:44.231Z,981.71
2017-10-29T03:49:44.168Z,981.56
2017-10-29T03:50:44.119Z,981.56
2017-10-29T03:51:44.052Z,981.71
2017-10-29T03:52:44.008Z,981.43
2017-10-29T03:53:43.958Z,981.75
2017-10-29T03:54:43.874Z,981.23
2017-10-29T03:55:43.821Z,981.66
2017-10-29T03:56:43.761Z,981.52
2017-10-29T03:57:43.699Z,981.32
2017-10-29T03:58:43.640Z,981.28
2017-10-29T03:59:43.579Z,981.42
2017-10-29T04:00:43.519Z,981.30
2017-10-29T04:01:43.464Z,981.13
2017-10-29T04:02:43.405Z,981.14
2017-10-29T04:03:43.346Z,981.40
2017-10-29T04:04:43.290Z,981.19
2017-10-29T04:05:43.234Z,981.22
2017-10-29T04:06:43.169Z,981.27
2017-10-29T04:07:43.124Z,981.28
2017-10-29T04:08:43.069Z,981.23
2017-10-29T04:09:42.992Z,981.09
2017-10-29T04:10:42.933Z,981.10
2017-10-29T04:11:42.874Z,980.95
2017-10-29T04:12:42.816Z,980.95
2017-10-29T04:13:42.750Z,981.20
2017-10-29T04:14:42.691Z,981.30
2017-10-29T04:15:42.634Z,981.26
2017-10-29T04:16:42.581Z,981.03
2017-10-29T04:17:42.518Z,980.85
2017-10-29T04:18:42.460Z,980.88
2017-10-29T04:19:42.403Z,981.10
2017-10-29T04:20:42.347Z,981.15
2017-10-29T04:21:42.280Z,981.03
2017-10-29T04:22:42.239Z,981.19
2017-10-29T04:23:42.163Z,981.06
2017-10-29T04:24:42.103Z,981.23
2017-10-29T04:25:42.042Z,981.21
2017-10-29T04:26:41.987Z,981.51
2017-10-29T04:27:41.919Z,981.59
2017-10-29T04:28:41.860Z,981.89
2017-10-29T04:29:41.809Z,982.11
2017-10-29T04:30:41.745Z,981.97
2017-10-29T04:31:41.705Z,981.84
2017-10-29T04:32:41.635Z,982.09
2017-10-29T04:33:41.574Z,981.75
2017-10-29T04:34:41.518Z,981.78
2017-10-29T04:35:41.462Z,981.78
2017-10-29T04:36:41.396Z,981.71
2017-10-29T04:37:41.333Z,981.91
2017-10-29T04:38:41.273Z,982.16
2017-10-29T04:39:41.210Z,981.64
2017-10-29T04:40:41.155Z,981.58
2017-10-29T04:41:41.096Z,981.47
2017-10-29T04:42:41.029Z,981.50
2017-10-29T04:43:40.981Z,981.40
2017-10-29T04:44:40.915Z,981.38
2017-10-29T04:45:40.857Z,981.28
2017-10-29T04:46:40.805Z,981.44
2017-10-29T04:47:40.751Z,981.44
2017-10-29T04:48:40.687Z,981.54
2017-10-29T04:49:40.633Z,981.46
2017-10-29T04:50:40.557Z,981.55
2017-10-29T04:51:40.503Z,981.60
2017-10-29T04:52:40.441Z,981.54
2017-10-29T04:53:40.379Z,981.45
2017-10-29T04:54:40.314Z,981.66
2017-10-29T04:55:40.255Z,981.51
2017-10-29T04:56:40.199Z,981.54
2017-10-29T04:57:40.138Z,981.60
2017-10-29T04:58:40.078Z,981.59
2017-10-29T04:59:40.022Z,981.68
2017-10-29T05:00:39.968Z,981.60
2017-10-29T05:01:39.899Z,981.48
2017-10-29T05:02:39.855Z,981.41
2017-10-29T05:03:39.781Z,981.38
2017-10-29T05:04:39.719Z,981.46
2017-10-29T05:05:39.661Z,981.34
2017-10-29T05:06:39.598Z,981.48
2017-10-29T05:07:39.533Z,981.38
2017-10-29T05:08:39.475Z,981.40
2017-10-29T05:09:39.430Z,981.50
2017-10-29T05:10:39.358Z,981.46
2017-10-29T05:11:39.301Z,981.47
2017-10-29T05:12:39.245Z,981.21
2017-10-29T05:13:39.189Z,981.36
2017-10-29T05:14:39.136Z,981.37
2017-10-29T05:15:39.060Z,981.14
2017-10-29T05:16:39.002Z,981.37
2017-10-29T05:17:38.942Z,981.38
2017-10-29T05:18:38.880Z,981.32
2017-10-29T05:19:38.811Z,981.29
2017-10-29T05:20:38.753Z,981.05
2017-10-29T05:21:38.696Z,981.25
2017-10-29T05:22:38.644Z,981.24
2017-10-29T05:23:38.579Z,981.27
2017-10-29T05:24:38.523Z,980.83
2017-10-29T05:25:38.468Z,981.17
2017-10-29T05:26:38.413Z,981.16
2017-10-29T05:27:38.338Z,981.10
2017-10-29T05:28:38.276Z,981.31
2017-10-29T05:29:38.219Z,981.03
2017-10-29T05:30:38.150Z,981.24
2017-10-29T05:31:38.090Z,981.11
2017-10-29T05:32:38.037Z,981.12
2017-10-29T05:33:37.974Z,981.37
2017-10-29T05:34:37.914Z,981.36
2017-10-29T05:35:37.858Z,981.32
2017-10-29T05:36:37.803Z,981.26
2017-10-29T05:37:37.746Z,981.41
2017-10-29T05:38:37.691Z,981.34
2017-10-29T05:39:37.615Z,981.50
2017-10-29T05:40:37.554Z,981.48
2017-10-29T05:41:37.500Z,981.53
2017-10-29T05:42:37.433Z,981.51
2017-10-29T05:43:37.367Z,981.52
2017-10-29T05:44:37.310Z,981.44
2017-10-29T05:45:37.252Z,981.40
2017-10-29T05:46:37.196Z,981.44
2017-10-29T05:47:37.135Z,981.44
2017-10-29T05:48:37.080Z,981.44
2017-10-29T05:49:37.025Z,981.39
2017-10-29T05:50:36.969Z,981.49
2017-10-29T05:51:36.894Z,981.36
2017-10-29T05:52:36.830Z,981.43
2017-10-29T05:53:36.772Z,981.48
2017-10-29T05:54:36.718Z,981.37
2017-10-29T05:55:36.660Z,981.40
2017-10-29T05:56:36.588Z,981.42
2017-10-29T05:57:36.528Z,981.50
2017-10-29T05:58:36.472Z,981.48
2017-10-29T05:59:36.413Z,981.32
2017-10-29T06:00:36.358Z,981.45
2017-10-29T06:01:36.302Z,981.41
2017-10-29T06:02:36.230Z,981.36
2017-10-29T06:03:36.197Z,981.48
2017-10-29T06:04:36.111Z,981.40
2017-10-29T06:05:36.052Z,981.37
2017-10-29T06:06:35.984Z,981.44
2017-10-29T06:07:35.933Z,981.38
2017-10-29T06:08:35.874Z,981.38
2017-10-29T06:09:35.816Z,981.38
2017-10-29T06:10:35.754Z,981.21
2017-10-29T06:11:35.693Z,981.40
2017-10-29T06:12:35.637Z,981.44
2017-10-29T06:13:35.582Z,981.34
2017-10-29T06:14:35.527Z,981.34
2017-10-29T06:15:35.451Z,981.29
2017-10-29T06:16:35.392Z,981.35
2017-10-29T06:17:35.382Z,981.32
2017-10-29T06:18:35.272Z,981.28
2017-10-29T06:19:35.217Z,981.24
2017-10-29T06:20:35.148Z,981.24
2017-10-29T06:21:35.106Z,981.14
2017-10-29T06:22:35.053Z,981.10
2017-10-29T06:23:34.976Z,981.25
2017-10-29T06:24:34.915Z,981.07
2017-10-29T06:25:34.864Z,981.05
2017-10-29T06:26:34.805Z,981.00
2017-10-29T06:27:34.750Z,980.95
2017-10-29T06:28:34.672Z,981.04
2017-10-29T06:29:34.613Z,981.14
2017-10-29T06:30:34.551Z,981.03
2017-10-29T06:31:34.484Z,981.25
2017-10-29T06:32:34.426Z,981.15
2017-10-29T06:33:34.367Z,981.06
2017-10-29T06:34:34.309Z,981.26
2017-10-29T06:35:34.251Z,981.24
2017-10-29T06:36:34.194Z,981.24
2017-10-29T06:37:34.139Z,981.24
2017-10-29T06:38:34.083Z,981.01
2017-10-29T06:39:34.029Z,981.33
2017-10-29T06:40:33.957Z,981.46
2017-10-29T06:41:33.894Z,981.33
2017-10-29T06:42:33.829Z,981.51
2017-10-29T06:43:33.765Z,981.36
2017-10-29T06:44:33.735Z,981.58
2017-10-29T06:45:33.647Z,981.59
2017-10-29T06:46:33.612Z,981.55
2017-10-29T06:47:33.531Z,981.18
2017-10-29T06:48:33.472Z,981.54
2017-10-29T06:49:33.417Z,981.66
2017-10-29T06:50:33.362Z,981.35
2017-10-29T06:51:33.310Z,981.76
2017-10-29T06:52:33.227Z,981.36
2017-10-29T06:53:33.171Z,981.86
2017-10-29T06:54:33.111Z,981.79
2017-10-29T06:55:33.091Z,981.81
2017-10-29T06:56:32.984Z,982.02
2017-10-29T06:57:32.936Z,981.96
2017-10-29T06:58:32.868Z,982.23
2017-10-29T06:59:32.817Z,982.17
2017-10-29T07:00:32.752Z,982.07
2017-10-29T07:01:32.696Z,982.09
2017-10-29T07:02:32.647Z,982.38
2017-10-29T07:03:32.585Z,982.34
2017-10-29T07:04:32.532Z,982.40
2017-10-29T07:05:32.464Z,982.41
2017-10-29T07:06:32.392Z,982.54
2017-10-29T07:07:32.328Z,982.50
2017-10-29T07:08:32.272Z,982.49
2017-10-29T07:09:32.213Z,982.46
2017-10-29T07:10:32.149Z,982.32
2017-10-29T07:11:32.093Z,982.41
2017-10-29T07:12:32.034Z,982.71
2017-10-29T07:13:31.975Z,982.40
2017-10-29T07:14:31.913Z,982.65
2017-10-29T07:15:31.865Z,982.72
2017-10-29T07:16:31.809Z,982.65
2017-10-29T07:17:31.754Z,982.57
2017-10-29T07:18:31.678Z,982.58
2017-10-29T07:19:31.618Z,982.78
2017-10-29T07:20:31.562Z,982.45
2017-10-29T07:21:31.492Z,982.54
2017-10-29T07:22:31.434Z,982.52
2017-10-29T07:23:31.378Z,982.65
2017-10-29T07:24:31.319Z,982.72
2017-10-29T07:25:31.260Z,982.57
2017-10-29T07:26:31.201Z,982.62
2017-10-29T07:27:31.144Z,982.48
2017-10-29T07:28:31.089Z,982.37
2017-10-29T07:29:31.024Z,982.58
2017-10-29T07:30:30.978Z,982.54
2017-10-29T07:31:30.924Z,982.50
2017-10-29T07:32:30.870Z,982.59
2017-10-29T07:33:30.786Z,982.66
2017-10-29T07:34:30.730Z,982.73
2017-10-29T07:35:30.663Z,982.69
2017-10-29T07:36:30.602Z,982.79
2017-10-29T07:37:30.543Z,982.87
2017-10-29T07:38:30.487Z,982.98
2017-10-29T07:39:30.429Z,983.00
2017-10-29T07:40:30.371Z,983.04
2017-10-29T07:41:30.314Z,983.00
2017-10-29T07:42:30.258Z,983.03
2017-10-29T07:43:30.202Z,983.13
2017-10-29T07:44:30.133Z,982.98
2017-10-29T07:45:30.078Z,983.27
2017-10-29T07:46:30.015Z,983.57
2017-10-29T07:47:29.952Z,983.19
2017-10-29T07:48:29.896Z,983.47
2017-10-29T07:49:29.839Z,983.40
2017-10-29T07:50:29.769Z,983.27
2017-10-29T07:51:29.711Z,983.23
2017-10-29T07:52:29.655Z,983.36
2017-10-29T07:53:29.596Z,983.46
2017-10-29T07:54:29.540Z,983.34
2017-10-29T07:55:29.482Z,983.46
2017-10-29T07:56:29.426Z,983.51
2017-10-29T07:57:29.371Z,983.54
2017-10-29T07:58:29.317Z,983.57
2017-10-29T07:59:29.240Z,983.36
2017-10-29T08:00:29.184Z,983.56
2017-10-29T08:01:29.121Z,983.64
2017-10-29T08:02:29.063Z,983.55
2017-10-29T08:03:29.000Z,983.59
2017-10-29T08:04:28.970Z,983.50
2017-10-29T08:05:28.881Z,983.59
2017-10-29T08:06:28.828Z,983.65
2017-10-29T08:07:28.765Z,983.56
2017-10-29T08:08:28.708Z,983.80
2017-10-29T08:09:28.658Z,983.72
2017-10-29T08:10:28.594Z,983.78
2017-10-29T08:11:28.541Z,983.79
2017-10-29T08:12:28.485Z,984.02
2017-10-29T08:13:28.410Z,984.03
2017-10-29T08:14:28.359Z,984.27
2017-10-29T08:15:28.289Z,984.19
2017-10-29T08:16:28.253Z,984.27
2017-10-29T08:17:28.165Z,984.33
2017-10-29T08:18:28.116Z,984.42
2017-10-29T08:19:28.053Z,984.50
2017-10-29T08:20:27.991Z,984.57
2017-10-29T08:21:27.937Z,984.52
2017-10-29T08:22:27.905Z,984.90
2017-10-29T08:23:27.818Z,984.79
2017-10-29T08:24:27.764Z,984.83
2017-10-29T08:25:27.709Z,984.86
2017-10-29T08:26:27.656Z,984.88
2017-10-29T08:27:27.583Z,984.91
2017-10-29T08:28:27.558Z,984.96
2017-10-29T08:29:27.458Z,985.20
2017-10-29T08:30:27.398Z,985.16
2017-10-29T08:31:27.331Z,985.17
2017-10-29T08:32:27.281Z,985.33
2017-10-29T08:33:27.217Z,985.47
2017-10-29T08:34:27.188Z,985.40
2017-10-29T08:35:27.104Z,985.43
2017-10-29T08:36:27.045Z,985.35
2017-10-29T08:37:26.989Z,985.36
2017-10-29T08:38:26.934Z,985.52
2017-10-29T08:39:26.880Z,985.37
2017-10-29T08:40:26.824Z,985.70
2017-10-29T08:41:26.745Z,985.76
2017-10-29T08:42:26.682Z,985.65
2017-10-29T08:43:26.627Z,985.88
2017-10-29T08:44:26.591Z,985.99
2017-10-29T08:45:26.505Z,986.12
2017-10-29T08:46:26.444Z,986.19
2017-10-29T08:47:26.405Z,986.25
2017-10-29T08:48:26.330Z,986.39
2017-10-29T08:49:26.273Z,986.45
2017-10-29T08:50:26.218Z,986.57
2017-10-29T08:51:26.159Z,986.59
2017-10-29T08:52:26.102Z,986.60
2017-10-29T08:53:26.051Z,986.57
2017-10-29T08:54:25.991Z,986.81
2017-10-29T08:55:25.935Z,986.83
2017-10-29T08:56:25.860Z,986.98
2017-10-29T08:57:25.797Z,987.20
2017-10-29T08:58:25.740Z,987.27
2017-10-29T08:59:25.677Z,987.30
2017-10-29T09:00:25.614Z,987.29
2017-10-29T09:01:25.557Z,987.53
2017-10-29T09:02:25.503Z,987.43
2017-10-29T09:03:25.444Z,987.59
2017-10-29T09:04:25.383Z,987.66
2017-10-29T09:05:25.329Z,987.75
2017-10-29T09:06:25.272Z,987.80
2017-10-29T09:07:25.208Z,987.77
2017-10-29T09:08:25.162Z,987.98
2017-10-29T09:09:25.106Z,988.04
2017-10-29T09:10:25.032Z,988.03
2017-10-29T09:11:24.970Z,988.14
2017-10-29T09:12:24.911Z,988.29
2017-10-29T09:13:24.857Z,988.33
2017-10-29T09:14:24.795Z,988.30
2017-10-29T09:15:24.728Z,988.42
2017-10-29T09:16:24.673Z,988.43
2017-10-29T09:17:24.615Z,988.63
2017-10-29T09:18:24.556Z,988.63
2017-10-29T09:19:24.500Z,988.52
2017-10-29T09:20:24.442Z,988.64
2017-10-29T09:21:24.386Z,988.75
2017-10-29T09:22:24.332Z,988.77
2017-10-29T09:23:24.275Z,988.79
2017-10-29T09:24:24.221Z,988.83
2017-10-29T09:25:24.167Z,988.85
2017-10-29T09:26:24.115Z,989.02
2017-10-29T09:27:24.034Z,989.04
2017-10-29T09:28:23.980Z,989.07
2017-10-29T09:29:23.918Z,989.14
2017-10-29T09:30:23.862Z,989.24
2017-10-29T09:31:23.805Z,989.37
2017-10-29T09:32:23.741Z,989.39
2017-10-29T09:33:23.681Z,989.42
2017-10-29T09:34:23.624Z,989.49
2017-10-29T09:35:23.568Z,989.53
2017-10-29T09:36:23.511Z,989.59
2017-10-29T09:37:23.455Z,989.64
2017-10-29T09:38:23.397Z,989.70
2017-10-29T09:39:23.341Z,989.71
2017-10-29T09:40:23.287Z,989.79
2017-10-29T09:41:23.229Z,989.80
2017-10-29T09:42:23.171Z,989.89
2017-10-29T09:43:23.116Z,989.84
2017-10-29T09:44:23.061Z,989.90
2017-10-29T09:45:23.007Z,990.04
2017-10-29T09:46:22.952Z,990.05
2017-10-29T09:47:22.878Z,990.03
2017-10-29T09:48:22.819Z,990.04
2017-10-29T09:49:22.764Z,990.16
2017-10-29T09:50:22.702Z,990.33
2017-10-29T09:51:22.644Z,990.33
2017-10-29T09:52:22.588Z,990.37
2017-10-29T09:53:22.522Z,990.40
2017-10-29T09:54:22.464Z,990.56
2017-10-29T09:55:22.408Z,990.63
2017-10-29T09:56:22.352Z,990.60
2017-10-29T09:57:22.294Z,990.68
2017-10-29T09:58:22.238Z,990.73
2017-10-29T09:59:22.180Z,990.77
2017-10-29T10:00:22.123Z,990.82
2017-10-29T10:01:22.068Z,990.83
2017-10-29T10:02:22.012Z,990.91
2017-10-29T10:03:21.957Z,990.95
2017-10-29T10:04:21.902Z,990.95
2017-10-29T10:05:21.848Z,991.07
2017-10-29T10:06:21.771Z,991.07
2017-10-29T10:07:21.717Z,991.06
2017-10-29T10:08:21.658Z,991.15
2017-10-29T10:09:21.598Z,991.18
2017-10-29T10:10:21.541Z,991.22
2017-10-29T10:11:21.483Z,991.27
2017-10-29T10:12:21.421Z,991.35
2017-10-29T10:13:21.360Z,991.36
2017-10-29T10:14:21.305Z,991.33
2017-10-29T10:15:21.246Z,991.43
2017-10-29T10:16:21.192Z,991.47
2017-10-29T10:17:21.135Z,991.50
2017-10-29T10:18:21.077Z,991.56
2017-10-29T10:19:21.019Z,991.53
2017-10-29T10:20:20.964Z,991.59
2017-10-29T10:21:20.909Z,991.57
2017-10-29T10:22:20.853Z,991.72
2017-10-29T10:23:20.798Z,991.66
2017-10-29T10:24:20.746Z,991.78
2017-10-29T10:25:20.690Z,991.80
2017-10-29T10:26:20.637Z,991.70
2017-10-29T10:27:20.557Z,991.74
2017-10-29T10:28:20.502Z,991.81
2017-10-29T10:29:20.443Z,991.79
2017-10-29T10:30:20.385Z,991.86
2017-10-29T10:31:20.326Z,991.82
2017-10-29T10:32:20.272Z,991.84
2017-10-29T10:33:20.208Z,991.89
2017-10-29T10:34:20.151Z,991.90
2017-10-29T10:35:20.101Z,991.91
2017-10-29T10:36:20.037Z,991.97
2017-10-29T10:37:19.979Z,991.99
2017-10-29T10:38:19.925Z,991.96
2017-10-29T10:39:19.866Z,991.81
2017-10-29T10:40:19.814Z,992.05
2017-10-29T10:41:19.753Z,992.08
2017-10-29T10:42:19.697Z,992.13
2017-10-29T10:43:19.640Z,992.16
2017-10-29T10:44:19.588Z,991.97
2017-10-29T10:45:19.524Z,992.19
2017-10-29T10:46:19.476Z,992.24
2017-10-29T10:47:19.420Z,992.29
2017-10-29T10:48:19.367Z,992.32
2017-10-29T10:49:19.313Z,992.30
2017-10-29T10:50:19.234Z,992.49
2017-10-29T10:51:19.174Z,992.58
2017-10-29T10:52:19.114Z,992.66
2017-10-29T10:53:19.057Z,992.75
2017-10-29T10:54:18.999Z,992.69
2017-10-29T10:55:18.942Z,992.77
2017-10-29T10:56:18.880Z,992.85
2017-10-29T10:57:18.820Z,992.82
2017-10-29T10:58:18.762Z,992.87
2017-10-29T10:59:18.708Z,992.94
2017-10-29T11:00:18.649Z,993.08
2017-10-29T11:01:18.593Z,993.05
2017-10-29T11:02:18.537Z,993.05
2017-10-29T11:03:18.486Z,993.23
2017-10-29T11:04:18.427Z,993.20
2017-10-29T11:05:18.358Z,993.35
2017-10-29T11:06:18.317Z,993.49
2017-10-29T11:07:18.240Z,993.46
2017-10-29T11:08:18.181Z,993.48
2017-10-29T11:09:18.122Z,993.62
2017-10-29T11:10:18.063Z,993.57
2017-10-29T11:11:18.001Z,993.61
2017-10-29T11:12:17.942Z,993.65
2017-10-29T11:13:17.881Z,993.75
2017-10-29T11:14:17.829Z,993.78
2017-10-29T11:15:17.768Z,993.91
2017-10-29T11:16:17.711Z,993.96
2017-10-29T11:17:17.654Z,993.96
2017-10-29T11:18:17.595Z,993.95
2017-10-29T11:19:17.540Z,993.87
2017-10-29T11:20:17.472Z,993.89
2017-10-29T11:21:17.431Z,993.96
2017-10-29T11:22:17.355Z,994.06
2017-10-29T11:23:17.295Z,994.06
2017-10-29T11:24:17.237Z,994.08
2017-10-29T11:25:17.177Z,994.17
2017-10-29T11:26:17.111Z,994.17
2017-10-29T11:27:17.052Z,994.23
2017-10-29T11:28:16.995Z,994.35
2017-10-29T11:29:16.950Z,994.40
2017-10-29T11:30:16.880Z,994.46
2017-10-29T11:31:16.822Z,994.39
2017-10-29T11:32:16.766Z,994.51
2017-10-29T11:33:16.711Z,994.53
2017-10-29T11:34:16.655Z,994.53
2017-10-29T11:35:16.585Z,994.53
2017-10-29T11:36:16.526Z,994.48
2017-10-29T11:37:16.466Z,994.66
2017-10-29T11:38:16.407Z,994.72
2017-10-29T11:39:16.349Z,994.59
2017-10-29T11:40:16.285Z,994.63
2017-10-29T11:41:16.222Z,994.72
2017-10-29T11:42:16.165Z,994.70
2017-10-29T11:43:16.108Z,994.71
2017-10-29T11:44:16.051Z,994.79
2017-10-29T11:45:15.991Z,994.75
2017-10-29T11:46:15.936Z,994.80
2017-10-29T11:47:15.880Z,994.84
2017-10-29T11:48:15.826Z,994.96
2017-10-29T11:49:15.772Z,995.03
2017-10-29T11:50:15.697Z,995.09
2017-10-29T11:51:15.646Z,995.14
2017-10-29T11:52:15.582Z,995.25
2017-10-29T11:53:15.518Z,995.13
2017-10-29T11:54:15.459Z,995.25
2017-10-29T11:55:15.391Z,995.33
2017-10-29T11:56:15.336Z,995.38
2017-10-29T11:57:15.277Z,995.43
2017-10-29T11:58:15.217Z,995.43
2017-10-29T11:59:15.160Z,995.49
2017-10-29T12:00:15.105Z,995.44
2017-10-29T12:01:15.048Z,995.52
2017-10-29T12:02:14.994Z,995.53
2017-10-29T12:03:14.939Z,995.63
2017-10-29T12:04:14.863Z,995.62
2017-10-29T12:05:14.804Z,995.65
2017-10-29T12:06:14.752Z,995.67
2017-10-29T12:07:14.690Z,995.70
2017-10-29T12:08:14.620Z,995.66
2017-10-29T12:09:14.571Z,995.68
2017-10-29T12:10:14.504Z,995.70
2017-10-29T12:11:14.445Z,995.79
2017-10-29T12:12:14.387Z,995.86
2017-10-29T12:13:14.333Z,995.88
2017-10-29T12:14:14.273Z,995.95
2017-10-29T12:15:14.218Z,996.07
2017-10-29T12:16:14.163Z,996.02
2017-10-29T12:17:14.115Z,996.06
2017-10-29T12:18:14.030Z,996.19
2017-10-29T12:19:13.985Z,996.25
2017-10-29T12:20:13.931Z,996.29
2017-10-29T12:21:13.846Z,996.33
2017-10-29T12:22:13.794Z,996.45
2017-10-29T12:23:13.735Z,996.43
2017-10-29T12:24:13.670Z,996.35
2017-10-29T12:25:13.614Z,996.49
2017-10-29T12:26:13.565Z,996.60
2017-10-29T12:27:13.498Z,996.63
2017-10-29T12:28:13.435Z,996.64